sensor_id;sensor_type;location;lat;lon;timestamp;P1;durP1;ratioP1;P2;durP2;ratioP2
12925;SDS011;6529;50.566;9.774;2023-09-07T00:00:00;3.90;;;3.47;;
12925;SDS011;6529;50.566;9.774;2023-09-07T00:02:25;4.67;;;3.70;;
12925;SDS011;6529;50.566;9.774;2023-09-07T00:04:51;6.93;;;3.30;;
12925;SDS011;6529;50.566;9.774;2023-09-07T00:07:16;4.20;;;3.03;;
12925;SDS011;6529;50.566;9.774;2023-09-07T00:09:42;4.23;;;3.47;;
12925;SDS011;6529;50.566;9.774;2023-09-07T00:12:08;4.80;;;3.53;;
12925;SDS011;6529;50.566;9.774;2023-09-07T00:14:33;4.87;;;3.40;;
12925;SDS011;6529;50.566;9.774;2023-09-07T00:16:59;4.43;;;3.80;;
12925;SDS011;6529;50.566;9.774;2023-09-07T00:19:24;4.10;;;3.53;;
12925;SDS011;6529;50.566;9.774;2023-09-07T00:21:50;4.30;;;3.50;;
12925;SDS011;6529;50.566;9.774;2023-09-07T00:24:17;3.53;;;3.23;;
12925;SDS011;6529;50.566;9.774;2023-09-07T00:26:42;4.17;;;3.70;;
12925;SDS011;6529;50.566;9.774;2023-09-07T00:29:08;3.90;;;3.50;;
12925;SDS011;6529;50.566;9.774;2023-09-07T00:31:34;3.87;;;3.40;;
12925;SDS011;6529;50.566;9.774;2023-09-07T00:33:59;6.07;;;3.80;;
12925;SDS011;6529;50.566;9.774;2023-09-07T00:36:25;5.80;;;3.67;;
12925;SDS011;6529;50.566;9.774;2023-09-07T00:38:51;4.37;;;3.33;;
12925;SDS011;6529;50.566;9.774;2023-09-07T00:41:16;3.90;;;3.47;;
12925;SDS011;6529;50.566;9.774;2023-09-07T00:43:42;6.47;;;4.20;;
12925;SDS011;6529;50.566;9.774;2023-09-07T00:46:07;5.87;;;3.87;;
12925;SDS011;6529;50.566;9.774;2023-09-07T00:48:34;4.97;;;3.70;;
12925;SDS011;6529;50.566;9.774;2023-09-07T00:51:00;4.83;;;3.70;;
12925;SDS011;6529;50.566;9.774;2023-09-07T00:53:26;4.90;;;3.77;;
12925;SDS011;6529;50.566;9.774;2023-09-07T00:55:53;4.57;;;3.70;;
12925;SDS011;6529;50.566;9.774;2023-09-07T00:58:20;5.57;;;3.97;;
12925;SDS011;6529;50.566;9.774;2023-09-07T01:00:46;4.43;;;3.57;;
12925;SDS011;6529;50.566;9.774;2023-09-07T01:03:12;4.63;;;3.80;;
12925;SDS011;6529;50.566;9.774;2023-09-07T01:05:51;4.63;;;3.63;;
12925;SDS011;6529;50.566;9.774;2023-09-07T01:08:24;5.33;;;3.80;;
12925;SDS011;6529;50.566;9.774;2023-09-07T01:11:01;4.07;;;3.67;;
12925;SDS011;6529;50.566;9.774;2023-09-07T01:13:37;4.93;;;3.60;;
12925;SDS011;6529;50.566;9.774;2023-09-07T01:16:02;4.53;;;3.30;;
12925;SDS011;6529;50.566;9.774;2023-09-07T01:18:28;4.53;;;4.00;;
12925;SDS011;6529;50.566;9.774;2023-09-07T01:20:54;4.63;;;3.50;;
12925;SDS011;6529;50.566;9.774;2023-09-07T01:23:20;3.60;;;3.30;;
12925;SDS011;6529;50.566;9.774;2023-09-07T01:25:46;4.00;;;3.57;;
12925;SDS011;6529;50.566;9.774;2023-09-07T01:28:13;3.67;;;3.30;;
12925;SDS011;6529;50.566;9.774;2023-09-07T01:30:40;3.20;;;2.90;;
12925;SDS011;6529;50.566;9.774;2023-09-07T01:33:06;4.70;;;3.97;;
12925;SDS011;6529;50.566;9.774;2023-09-07T01:35:33;4.47;;;3.73;;
12925;SDS011;6529;50.566;9.774;2023-09-07T01:38:00;4.90;;;3.80;;
12925;SDS011;6529;50.566;9.774;2023-09-07T01:40:26;4.13;;;3.57;;
12925;SDS011;6529;50.566;9.774;2023-09-07T01:42:52;3.53;;;3.23;;
12925;SDS011;6529;50.566;9.774;2023-09-07T01:45:18;4.70;;;3.73;;
12925;SDS011;6529;50.566;9.774;2023-09-07T01:47:43;4.67;;;3.50;;
12925;SDS011;6529;50.566;9.774;2023-09-07T01:50:09;5.43;;;3.90;;
12925;SDS011;6529;50.566;9.774;2023-09-07T01:52:34;4.23;;;3.67;;
12925;SDS011;6529;50.566;9.774;2023-09-07T01:55:00;4.60;;;3.70;;
12925;SDS011;6529;50.566;9.774;2023-09-07T01:57:25;3.67;;;3.33;;
12925;SDS011;6529;50.566;9.774;2023-09-07T01:59:51;4.70;;;3.57;;
12925;SDS011;6529;50.566;9.774;2023-09-07T02:02:17;4.20;;;3.50;;
12925;SDS011;6529;50.566;9.774;2023-09-07T02:04:42;4.53;;;3.30;;
12925;SDS011;6529;50.566;9.774;2023-09-07T02:07:11;4.93;;;3.70;;
12925;SDS011;6529;50.566;9.774;2023-09-07T02:09:37;3.80;;;3.30;;
12925;SDS011;6529;50.566;9.774;2023-09-07T02:12:03;5.77;;;3.77;;
12925;SDS011;6529;50.566;9.774;2023-09-07T02:14:30;4.40;;;3.73;;
12925;SDS011;6529;50.566;9.774;2023-09-07T02:16:56;4.63;;;3.97;;
12925;SDS011;6529;50.566;9.774;2023-09-07T02:19:21;4.10;;;3.70;;
12925;SDS011;6529;50.566;9.774;2023-09-07T02:21:48;4.47;;;3.53;;
12925;SDS011;6529;50.566;9.774;2023-09-07T02:24:15;5.80;;;3.73;;
12925;SDS011;6529;50.566;9.774;2023-09-07T02:26:40;4.33;;;3.50;;
12925;SDS011;6529;50.566;9.774;2023-09-07T02:29:10;4.97;;;3.37;;
12925;SDS011;6529;50.566;9.774;2023-09-07T02:31:42;5.97;;;3.33;;
12925;SDS011;6529;50.566;9.774;2023-09-07T02:34:07;5.60;;;3.93;;
12925;SDS011;6529;50.566;9.774;2023-09-07T02:36:33;2.93;;;2.60;;
12925;SDS011;6529;50.566;9.774;2023-09-07T02:39:02;3.40;;;3.10;;
12925;SDS011;6529;50.566;9.774;2023-09-07T02:41:28;3.73;;;3.40;;
12925;SDS011;6529;50.566;9.774;2023-09-07T02:43:55;3.90;;;3.33;;
12925;SDS011;6529;50.566;9.774;2023-09-07T02:46:21;4.10;;;3.70;;
12925;SDS011;6529;50.566;9.774;2023-09-07T02:48:46;3.63;;;3.33;;
12925;SDS011;6529;50.566;9.774;2023-09-07T02:51:12;3.87;;;3.50;;
12925;SDS011;6529;50.566;9.774;2023-09-07T02:53:38;4.67;;;3.73;;
12925;SDS011;6529;50.566;9.774;2023-09-07T02:56:04;5.37;;;3.90;;
12925;SDS011;6529;50.566;9.774;2023-09-07T02:58:30;4.60;;;3.77;;
12925;SDS011;6529;50.566;9.774;2023-09-07T03:00:56;4.10;;;3.70;;
12925;SDS011;6529;50.566;9.774;2023-09-07T03:03:21;3.87;;;3.47;;
12925;SDS011;6529;50.566;9.774;2023-09-07T03:05:47;3.77;;;3.47;;
12925;SDS011;6529;50.566;9.774;2023-09-07T03:08:12;4.63;;;3.53;;
12925;SDS011;6529;50.566;9.774;2023-09-07T03:10:38;4.30;;;3.90;;
12925;SDS011;6529;50.566;9.774;2023-09-07T03:13:05;3.97;;;3.67;;
12925;SDS011;6529;50.566;9.774;2023-09-07T03:15:31;7.27;;;3.80;;
12925;SDS011;6529;50.566;9.774;2023-09-07T03:17:57;4.13;;;3.40;;
12925;SDS011;6529;50.566;9.774;2023-09-07T03:20:22;4.23;;;3.37;;
12925;SDS011;6529;50.566;9.774;2023-09-07T03:22:48;4.93;;;3.67;;
12925;SDS011;6529;50.566;9.774;2023-09-07T03:25:14;4.23;;;3.83;;
12925;SDS011;6529;50.566;9.774;2023-09-07T03:27:39;4.97;;;3.60;;
12925;SDS011;6529;50.566;9.774;2023-09-07T03:30:05;4.07;;;3.63;;
12925;SDS011;6529;50.566;9.774;2023-09-07T03:32:32;4.00;;;3.60;;
12925;SDS011;6529;50.566;9.774;2023-09-07T03:35:01;3.97;;;3.50;;
12925;SDS011;6529;50.566;9.774;2023-09-07T03:37:32;4.50;;;3.50;;
12925;SDS011;6529;50.566;9.774;2023-09-07T03:39:57;4.17;;;3.37;;
12925;SDS011;6529;50.566;9.774;2023-09-07T03:42:23;3.77;;;3.47;;
12925;SDS011;6529;50.566;9.774;2023-09-07T03:44:49;4.43;;;3.90;;
12925;SDS011;6529;50.566;9.774;2023-09-07T03:47:14;5.13;;;3.83;;
12925;SDS011;6529;50.566;9.774;2023-09-07T03:49:43;5.00;;;3.90;;
12925;SDS011;6529;50.566;9.774;2023-09-07T03:52:09;4.53;;;3.70;;
12925;SDS011;6529;50.566;9.774;2023-09-07T03:54:35;7.03;;;4.23;;
12925;SDS011;6529;50.566;9.774;2023-09-07T03:57:00;4.13;;;3.73;;
12925;SDS011;6529;50.566;9.774;2023-09-07T03:59:27;4.27;;;3.60;;
12925;SDS011;6529;50.566;9.774;2023-09-07T04:01:53;3.80;;;3.50;;
12925;SDS011;6529;50.566;9.774;2023-09-07T04:04:19;4.30;;;3.50;;
12925;SDS011;6529;50.566;9.774;2023-09-07T04:06:46;5.87;;;3.83;;
12925;SDS011;6529;50.566;9.774;2023-09-07T04:09:13;4.10;;;3.70;;
12925;SDS011;6529;50.566;9.774;2023-09-07T04:11:39;4.43;;;3.43;;
12925;SDS011;6529;50.566;9.774;2023-09-07T04:14:05;4.27;;;3.10;;
12925;SDS011;6529;50.566;9.774;2023-09-07T04:16:30;4.60;;;3.10;;
12925;SDS011;6529;50.566;9.774;2023-09-07T04:18:56;3.80;;;3.40;;
12925;SDS011;6529;50.566;9.774;2023-09-07T04:21:21;4.33;;;3.30;;
12925;SDS011;6529;50.566;9.774;2023-09-07T04:23:47;4.23;;;3.80;;
12925;SDS011;6529;50.566;9.774;2023-09-07T04:26:13;3.80;;;3.40;;
12925;SDS011;6529;50.566;9.774;2023-09-07T04:28:39;4.93;;;3.90;;
12925;SDS011;6529;50.566;9.774;2023-09-07T04:31:05;4.40;;;3.93;;
12925;SDS011;6529;50.566;9.774;2023-09-07T04:33:32;4.10;;;3.53;;
12925;SDS011;6529;50.566;9.774;2023-09-07T04:36:11;4.67;;;3.50;;
12925;SDS011;6529;50.566;9.774;2023-09-07T04:38:37;3.97;;;3.60;;
12925;SDS011;6529;50.566;9.774;2023-09-07T04:43:33;5.10;;;3.87;;
12925;SDS011;6529;50.566;9.774;2023-09-07T04:45:58;5.97;;;3.87;;
12925;SDS011;6529;50.566;9.774;2023-09-07T04:48:24;5.27;;;3.40;;
12925;SDS011;6529;50.566;9.774;2023-09-07T04:50:57;4.90;;;3.50;;
12925;SDS011;6529;50.566;9.774;2023-09-07T04:53:27;5.07;;;3.77;;
12925;SDS011;6529;50.566;9.774;2023-09-07T04:55:53;4.77;;;3.83;;
12925;SDS011;6529;50.566;9.774;2023-09-07T04:58:19;4.60;;;3.87;;
12925;SDS011;6529;50.566;9.774;2023-09-07T05:00:45;4.10;;;3.70;;
12925;SDS011;6529;50.566;9.774;2023-09-07T05:03:10;5.43;;;4.30;;
12925;SDS011;6529;50.566;9.774;2023-09-07T05:05:37;5.73;;;4.27;;
12925;SDS011;6529;50.566;9.774;2023-09-07T05:08:03;4.13;;;3.73;;
12925;SDS011;6529;50.566;9.774;2023-09-07T05:10:30;5.97;;;4.03;;
12925;SDS011;6529;50.566;9.774;2023-09-07T05:12:58;4.10;;;3.70;;
12925;SDS011;6529;50.566;9.774;2023-09-07T05:15:23;4.10;;;3.70;;
12925;SDS011;6529;50.566;9.774;2023-09-07T05:17:49;4.67;;;3.80;;
12925;SDS011;6529;50.566;9.774;2023-09-07T05:20:15;4.07;;;3.67;;
12925;SDS011;6529;50.566;9.774;2023-09-07T05:22:40;4.20;;;3.80;;
12925;SDS011;6529;50.566;9.774;2023-09-07T05:25:06;4.57;;;4.10;;
12925;SDS011;6529;50.566;9.774;2023-09-07T05:27:33;4.57;;;3.93;;
12925;SDS011;6529;50.566;9.774;2023-09-07T05:30:00;4.80;;;4.30;;
12925;SDS011;6529;50.566;9.774;2023-09-07T05:32:25;4.90;;;3.80;;
12925;SDS011;6529;50.566;9.774;2023-09-07T05:34:51;4.70;;;4.20;;
12925;SDS011;6529;50.566;9.774;2023-09-07T05:37:16;4.83;;;3.70;;
12925;SDS011;6529;50.566;9.774;2023-09-07T05:39:42;3.90;;;3.50;;
12925;SDS011;6529;50.566;9.774;2023-09-07T05:42:07;3.93;;;3.53;;
12925;SDS011;6529;50.566;9.774;2023-09-07T05:44:33;4.13;;;3.73;;
12925;SDS011;6529;50.566;9.774;2023-09-07T05:46:58;5.00;;;4.10;;
12925;SDS011;6529;50.566;9.774;2023-09-07T05:49:24;5.00;;;3.80;;
12925;SDS011;6529;50.566;9.774;2023-09-07T05:51:50;4.50;;;3.70;;
12925;SDS011;6529;50.566;9.774;2023-09-07T05:54:15;4.50;;;4.10;;
12925;SDS011;6529;50.566;9.774;2023-09-07T05:56:41;5.50;;;3.87;;
12925;SDS011;6529;50.566;9.774;2023-09-07T05:59:06;5.13;;;3.80;;
12925;SDS011;6529;50.566;9.774;2023-09-07T06:01:32;4.33;;;3.93;;
12925;SDS011;6529;50.566;9.774;2023-09-07T06:03:58;6.93;;;3.90;;
12925;SDS011;6529;50.566;9.774;2023-09-07T06:06:24;4.13;;;3.73;;
12925;SDS011;6529;50.566;9.774;2023-09-07T06:08:49;6.07;;;4.80;;
12925;SDS011;6529;50.566;9.774;2023-09-07T06:11:15;5.20;;;4.33;;
12925;SDS011;6529;50.566;9.774;2023-09-07T06:13:41;5.73;;;4.43;;
12925;SDS011;6529;50.566;9.774;2023-09-07T06:16:07;5.23;;;4.73;;
12925;SDS011;6529;50.566;9.774;2023-09-07T06:18:32;4.83;;;4.33;;
12925;SDS011;6529;50.566;9.774;2023-09-07T06:20:58;5.73;;;4.50;;
12925;SDS011;6529;50.566;9.774;2023-09-07T06:23:23;5.63;;;4.50;;
12925;SDS011;6529;50.566;9.774;2023-09-07T06:25:49;5.50;;;4.90;;
12925;SDS011;6529;50.566;9.774;2023-09-07T06:28:14;6.23;;;5.20;;
12925;SDS011;6529;50.566;9.774;2023-09-07T06:30:40;8.13;;;5.63;;
12925;SDS011;6529;50.566;9.774;2023-09-07T06:33:06;6.53;;;4.93;;
12925;SDS011;6529;50.566;9.774;2023-09-07T06:35:31;5.63;;;5.03;;
12925;SDS011;6529;50.566;9.774;2023-09-07T06:37:57;7.00;;;5.33;;
12925;SDS011;6529;50.566;9.774;2023-09-07T06:40:22;6.20;;;5.20;;
12925;SDS011;6529;50.566;9.774;2023-09-07T06:42:48;6.47;;;5.27;;
12925;SDS011;6529;50.566;9.774;2023-09-07T06:45:14;6.27;;;5.33;;
12925;SDS011;6529;50.566;9.774;2023-09-07T06:47:39;8.23;;;6.00;;
12925;SDS011;6529;50.566;9.774;2023-09-07T06:50:06;6.07;;;5.47;;
12925;SDS011;6529;50.566;9.774;2023-09-07T06:52:32;8.10;;;5.60;;
12925;SDS011;6529;50.566;9.774;2023-09-07T06:54:57;7.10;;;6.00;;
12925;SDS011;6529;50.566;9.774;2023-09-07T06:57:23;5.87;;;5.20;;
12925;SDS011;6529;50.566;9.774;2023-09-07T06:59:48;5.77;;;4.90;;
12925;SDS011;6529;50.566;9.774;2023-09-07T07:02:14;6.57;;;5.73;;
12925;SDS011;6529;50.566;9.774;2023-09-07T07:04:39;6.83;;;6.17;;
12925;SDS011;6529;50.566;9.774;2023-09-07T07:07:05;7.03;;;5.60;;
12925;SDS011;6529;50.566;9.774;2023-09-07T07:09:31;6.70;;;5.60;;
12925;SDS011;6529;50.566;9.774;2023-09-07T07:11:58;6.50;;;5.80;;
12925;SDS011;6529;50.566;9.774;2023-09-07T07:14:26;6.67;;;6.00;;
12925;SDS011;6529;50.566;9.774;2023-09-07T07:16:51;7.10;;;6.27;;
12925;SDS011;6529;50.566;9.774;2023-09-07T07:19:17;6.87;;;5.93;;
12925;SDS011;6529;50.566;9.774;2023-09-07T07:21:42;6.70;;;5.80;;
12925;SDS011;6529;50.566;9.774;2023-09-07T07:24:08;9.53;;;6.23;;
12925;SDS011;6529;50.566;9.774;2023-09-07T07:26:34;5.90;;;4.90;;
12925;SDS011;6529;50.566;9.774;2023-09-07T07:28:59;7.37;;;5.17;;
12925;SDS011;6529;50.566;9.774;2023-09-07T07:31:25;5.57;;;4.53;;
12925;SDS011;6529;50.566;9.774;2023-09-07T07:33:51;6.50;;;5.80;;
12925;SDS011;6529;50.566;9.774;2023-09-07T07:36:17;5.90;;;4.90;;
12925;SDS011;6529;50.566;9.774;2023-09-07T07:38:43;4.93;;;4.43;;
12925;SDS011;6529;50.566;9.774;2023-09-07T07:41:08;6.47;;;4.40;;
12925;SDS011;6529;50.566;9.774;2023-09-07T07:43:34;8.30;;;5.20;;
12925;SDS011;6529;50.566;9.774;2023-09-07T07:45:59;8.30;;;4.90;;
12925;SDS011;6529;50.566;9.774;2023-09-07T07:48:25;5.60;;;5.00;;
12925;SDS011;6529;50.566;9.774;2023-09-07T07:50:51;5.37;;;4.80;;
12925;SDS011;6529;50.566;9.774;2023-09-07T07:53:16;6.97;;;5.80;;
12925;SDS011;6529;50.566;9.774;2023-09-07T07:55:42;6.40;;;5.43;;
12925;SDS011;6529;50.566;9.774;2023-09-07T07:58:08;6.30;;;5.03;;
12925;SDS011;6529;50.566;9.774;2023-09-07T08:00:34;7.10;;;5.30;;
12925;SDS011;6529;50.566;9.774;2023-09-07T08:03:01;6.10;;;5.50;;
12925;SDS011;6529;50.566;9.774;2023-09-07T08:05:34;5.20;;;4.70;;
12925;SDS011;6529;50.566;9.774;2023-09-07T08:08:00;6.20;;;4.83;;
12925;SDS011;6529;50.566;9.774;2023-09-07T08:10:26;7.13;;;4.97;;
12925;SDS011;6529;50.566;9.774;2023-09-07T08:12:55;6.20;;;5.60;;
12925;SDS011;6529;50.566;9.774;2023-09-07T08:15:21;7.88;;;5.35;;
12925;SDS011;6529;50.566;9.774;2023-09-07T08:17:49;7.30;;;5.15;;
12925;SDS011;6529;50.566;9.774;2023-09-07T08:20:15;6.20;;;4.72;;
12925;SDS011;6529;50.566;9.774;2023-09-07T08:22:41;5.55;;;4.75;;
12925;SDS011;6529;50.566;9.774;2023-09-07T08:25:10;5.90;;;4.82;;
12925;SDS011;6529;50.566;9.774;2023-09-07T08:27:40;4.60;;;4.20;;
12925;SDS011;6529;50.566;9.774;2023-09-07T08:30:14;6.38;;;5.30;;
12925;SDS011;6529;50.566;9.774;2023-09-07T08:32:42;7.03;;;4.88;;
12925;SDS011;6529;50.566;9.774;2023-09-07T08:35:10;4.95;;;4.45;;
12925;SDS011;6529;50.566;9.774;2023-09-07T08:37:38;5.68;;;4.70;;
12925;SDS011;6529;50.566;9.774;2023-09-07T08:40:04;5.80;;;4.97;;
12925;SDS011;6529;50.566;9.774;2023-09-07T08:42:32;5.35;;;4.90;;
12925;SDS011;6529;50.566;9.774;2023-09-07T08:45:01;7.80;;;4.50;;
12925;SDS011;6529;50.566;9.774;2023-09-07T08:47:31;5.18;;;4.68;;
12925;SDS011;6529;50.566;9.774;2023-09-07T08:49:58;5.70;;;4.32;;
12925;SDS011;6529;50.566;9.774;2023-09-07T08:52:24;5.57;;;4.70;;
12925;SDS011;6529;50.566;9.774;2023-09-07T08:54:50;5.10;;;4.60;;
12925;SDS011;6529;50.566;9.774;2023-09-07T08:57:17;6.18;;;4.55;;
12925;SDS011;6529;50.566;9.774;2023-09-07T08:59:46;5.60;;;4.57;;
12925;SDS011;6529;50.566;9.774;2023-09-07T09:02:11;5.85;;;4.65;;
12925;SDS011;6529;50.566;9.774;2023-09-07T09:04:37;4.55;;;4.10;;
12925;SDS011;6529;50.566;9.774;2023-09-07T09:07:04;6.68;;;4.10;;
12925;SDS011;6529;50.566;9.774;2023-09-07T09:09:29;5.05;;;4.35;;
12925;SDS011;6529;50.566;9.774;2023-09-07T09:12:05;4.55;;;4.15;;
12925;SDS011;6529;50.566;9.774;2023-09-07T09:14:35;4.47;;;4.07;;
12925;SDS011;6529;50.566;9.774;2023-09-07T09:17:01;5.43;;;4.63;;
12925;SDS011;6529;50.566;9.774;2023-09-07T09:19:33;4.90;;;4.05;;
12925;SDS011;6529;50.566;9.774;2023-09-07T09:21:59;4.88;;;4.10;;
12925;SDS011;6529;50.566;9.774;2023-09-07T09:24:25;6.38;;;4.25;;
12925;SDS011;6529;50.566;9.774;2023-09-07T09:26:51;4.50;;;3.60;;
12925;SDS011;6529;50.566;9.774;2023-09-07T09:29:21;4.10;;;3.70;;
12925;SDS011;6529;50.566;9.774;2023-09-07T09:31:48;4.80;;;3.72;;
12925;SDS011;6529;50.566;9.774;2023-09-07T09:34:13;3.72;;;3.42;;
12925;SDS011;6529;50.566;9.774;2023-09-07T09:36:41;4.85;;;3.22;;
12925;SDS011;6529;50.566;9.774;2023-09-07T09:39:07;5.38;;;3.67;;
12925;SDS011;6529;50.566;9.774;2023-09-07T09:41:34;5.15;;;3.53;;
12925;SDS011;6529;50.566;9.774;2023-09-07T09:44:02;3.80;;;3.40;;
12925;SDS011;6529;50.566;9.774;2023-09-07T09:46:28;5.13;;;3.28;;
12925;SDS011;6529;50.566;9.774;2023-09-07T09:48:57;3.72;;;3.22;;
12925;SDS011;6529;50.566;9.774;2023-09-07T09:51:22;4.32;;;2.95;;
12925;SDS011;6529;50.566;9.774;2023-09-07T09:53:49;3.53;;;3.10;;
12925;SDS011;6529;50.566;9.774;2023-09-07T09:56:16;3.40;;;3.10;;
12925;SDS011;6529;50.566;9.774;2023-09-07T09:58:42;3.20;;;2.90;;
12925;SDS011;6529;50.566;9.774;2023-09-07T10:01:08;3.45;;;3.15;;
12925;SDS011;6529;50.566;9.774;2023-09-07T10:03:39;3.20;;;2.90;;
12925;SDS011;6529;50.566;9.774;2023-09-07T10:06:12;5.68;;;3.40;;
12925;SDS011;6529;50.566;9.774;2023-09-07T10:08:58;6.88;;;3.35;;
12925;SDS011;6529;50.566;9.774;2023-09-07T10:11:32;3.78;;;3.33;;
12925;SDS011;6529;50.566;9.774;2023-09-07T10:14:00;3.30;;;3.00;;
12925;SDS011;6529;50.566;9.774;2023-09-07T10:16:46;3.50;;;3.20;;
12925;SDS011;6529;50.566;9.774;2023-09-07T10:19:21;3.47;;;3.17;;
12925;SDS011;6529;50.566;9.774;2023-09-07T10:21:52;3.45;;;3.15;;
12925;SDS011;6529;50.566;9.774;2023-09-07T10:27:07;3.60;;;3.15;;
12925;SDS011;6529;50.566;9.774;2023-09-07T10:29:40;3.53;;;3.22;;
12925;SDS011;6529;50.566;9.774;2023-09-07T10:32:07;3.78;;;3.08;;
12925;SDS011;6529;50.566;9.774;2023-09-07T10:34:38;3.42;;;3.13;;
12925;SDS011;6529;50.566;9.774;2023-09-07T10:37:07;3.55;;;2.92;;
12925;SDS011;6529;50.566;9.774;2023-09-07T10:39:36;3.72;;;3.03;;
12925;SDS011;6529;50.566;9.774;2023-09-07T10:42:03;4.82;;;3.30;;
12925;SDS011;6529;50.566;9.774;2023-09-07T10:44:29;3.88;;;2.80;;
12925;SDS011;6529;50.566;9.774;2023-09-07T10:46:56;3.20;;;2.97;;
12925;SDS011;6529;50.566;9.774;2023-09-07T10:49:23;3.60;;;2.90;;
12925;SDS011;6529;50.566;9.774;2023-09-07T10:51:49;3.47;;;3.17;;
12925;SDS011;6529;50.566;9.774;2023-09-07T10:54:18;3.78;;;2.92;;
12925;SDS011;6529;50.566;9.774;2023-09-07T10:56:48;3.35;;;3.05;;
12925;SDS011;6529;50.566;9.774;2023-09-07T10:59:15;3.22;;;2.90;;
12925;SDS011;6529;50.566;9.774;2023-09-07T11:01:41;3.40;;;2.60;;
12925;SDS011;6529;50.566;9.774;2023-09-07T11:04:08;3.20;;;2.90;;
12925;SDS011;6529;50.566;9.774;2023-09-07T11:06:36;3.15;;;2.80;;
12925;SDS011;6529;50.566;9.774;2023-09-07T11:09:03;3.65;;;2.60;;
12925;SDS011;6529;50.566;9.774;2023-09-07T11:11:31;3.83;;;3.00;;
12925;SDS011;6529;50.566;9.774;2023-09-07T11:13:58;3.72;;;2.75;;
12925;SDS011;6529;50.566;9.774;2023-09-07T11:16:24;2.53;;;2.33;;
12925;SDS011;6529;50.566;9.774;2023-09-07T11:18:52;2.78;;;2.30;;
12925;SDS011;6529;50.566;9.774;2023-09-07T11:21:19;2.83;;;2.50;;
12925;SDS011;6529;50.566;9.774;2023-09-07T11:23:45;3.95;;;2.63;;
12925;SDS011;6529;50.566;9.774;2023-09-07T11:26:11;2.75;;;2.53;;
12925;SDS011;6529;50.566;9.774;2023-09-07T11:28:37;4.22;;;2.70;;
12925;SDS011;6529;50.566;9.774;2023-09-07T11:31:03;3.25;;;2.45;;
12925;SDS011;6529;50.566;9.774;2023-09-07T11:33:31;3.05;;;2.63;;
12925;SDS011;6529;50.566;9.774;2023-09-07T11:35:57;3.53;;;2.60;;
12925;SDS011;6529;50.566;9.774;2023-09-07T11:38:28;3.42;;;2.50;;
12925;SDS011;6529;50.566;9.774;2023-09-07T11:40:54;3.13;;;2.53;;
12925;SDS011;6529;50.566;9.774;2023-09-07T11:43:20;3.30;;;2.58;;
12925;SDS011;6529;50.566;9.774;2023-09-07T11:45:47;2.70;;;2.50;;
12925;SDS011;6529;50.566;9.774;2023-09-07T11:48:13;3.03;;;2.72;;
12925;SDS011;6529;50.566;9.774;2023-09-07T11:50:39;5.53;;;2.80;;
12925;SDS011;6529;50.566;9.774;2023-09-07T11:53:05;2.80;;;2.60;;
12925;SDS011;6529;50.566;9.774;2023-09-07T11:55:31;2.80;;;2.58;;
12925;SDS011;6529;50.566;9.774;2023-09-07T11:57:58;3.08;;;2.78;;
12925;SDS011;6529;50.566;9.774;2023-09-07T12:00:23;4.35;;;2.38;;
12925;SDS011;6529;50.566;9.774;2023-09-07T12:02:49;2.80;;;2.60;;
12925;SDS011;6529;50.566;9.774;2023-09-07T12:05:15;3.33;;;2.75;;
12925;SDS011;6529;50.566;9.774;2023-09-07T12:07:41;2.85;;;2.40;;
12925;SDS011;6529;50.566;9.774;2023-09-07T12:10:10;2.97;;;2.72;;
12925;SDS011;6529;50.566;9.774;2023-09-07T12:12:38;3.78;;;2.55;;
12925;SDS011;6529;50.566;9.774;2023-09-07T12:15:05;3.05;;;2.75;;
12925;SDS011;6529;50.566;9.774;2023-09-07T12:17:31;4.07;;;2.42;;
12925;SDS011;6529;50.566;9.774;2023-09-07T12:19:57;3.22;;;2.90;;
12925;SDS011;6529;50.566;9.774;2023-09-07T12:22:23;3.38;;;2.45;;
12925;SDS011;6529;50.566;9.774;2023-09-07T12:24:49;2.78;;;2.58;;
12925;SDS011;6529;50.566;9.774;2023-09-07T12:27:14;2.53;;;2.33;;
12925;SDS011;6529;50.566;9.774;2023-09-07T12:29:40;3.33;;;2.65;;
12925;SDS011;6529;50.566;9.774;2023-09-07T12:32:05;3.53;;;2.83;;
12925;SDS011;6529;50.566;9.774;2023-09-07T12:34:31;2.90;;;2.60;;
12925;SDS011;6529;50.566;9.774;2023-09-07T12:36:56;2.70;;;2.50;;
12925;SDS011;6529;50.566;9.774;2023-09-07T12:39:22;3.13;;;2.80;;
12925;SDS011;6529;50.566;9.774;2023-09-07T12:41:47;2.70;;;2.50;;
12925;SDS011;6529;50.566;9.774;2023-09-07T12:44:13;4.03;;;2.90;;
12925;SDS011;6529;50.566;9.774;2023-09-07T12:46:39;2.60;;;2.40;;
12925;SDS011;6529;50.566;9.774;2023-09-07T12:49:04;3.53;;;2.58;;
12925;SDS011;6529;50.566;9.774;2023-09-07T12:51:31;2.65;;;2.45;;
12925;SDS011;6529;50.566;9.774;2023-09-07T12:53:56;4.05;;;2.83;;
12925;SDS011;6529;50.566;9.774;2023-09-07T12:56:22;3.10;;;2.80;;
12925;SDS011;6529;50.566;9.774;2023-09-07T12:58:48;3.15;;;2.85;;
12925;SDS011;6529;50.566;9.774;2023-09-07T13:01:14;3.53;;;2.95;;
12925;SDS011;6529;50.566;9.774;2023-09-07T13:03:41;3.00;;;2.70;;
12925;SDS011;6529;50.566;9.774;2023-09-07T13:06:07;3.42;;;2.90;;
12925;SDS011;6529;50.566;9.774;2023-09-07T13:08:33;2.90;;;2.60;;
12925;SDS011;6529;50.566;9.774;2023-09-07T13:10:59;3.72;;;2.95;;
12925;SDS011;6529;50.566;9.774;2023-09-07T13:13:25;3.83;;;2.65;;
12925;SDS011;6529;50.566;9.774;2023-09-07T13:15:57;3.08;;;2.72;;
12925;SDS011;6529;50.566;9.774;2023-09-07T13:18:23;4.15;;;2.58;;
12925;SDS011;6529;50.566;9.774;2023-09-07T13:20:49;3.70;;;2.47;;
12925;SDS011;6529;50.566;9.774;2023-09-07T13:23:16;3.17;;;2.60;;
12925;SDS011;6529;50.566;9.774;2023-09-07T13:25:42;2.90;;;2.47;;
12925;SDS011;6529;50.566;9.774;2023-09-07T13:28:08;2.90;;;2.60;;
12925;SDS011;6529;50.566;9.774;2023-09-07T13:30:34;2.80;;;2.60;;
12925;SDS011;6529;50.566;9.774;2023-09-07T13:32:59;4.50;;;2.85;;
12925;SDS011;6529;50.566;9.774;2023-09-07T13:35:25;2.75;;;2.55;;
12925;SDS011;6529;50.566;9.774;2023-09-07T13:37:51;2.97;;;2.70;;
12925;SDS011;6529;50.566;9.774;2023-09-07T13:40:17;2.95;;;2.40;;
12925;SDS011;6529;50.566;9.774;2023-09-07T13:42:44;2.60;;;2.40;;
12925;SDS011;6529;50.566;9.774;2023-09-07T13:45:10;3.60;;;2.60;;
12925;SDS011;6529;50.566;9.774;2023-09-07T13:47:36;2.67;;;2.47;;
12925;SDS011;6529;50.566;9.774;2023-09-07T13:50:02;6.30;;;2.90;;
12925;SDS011;6529;50.566;9.774;2023-09-07T13:52:28;3.83;;;2.63;;
12925;SDS011;6529;50.566;9.774;2023-09-07T13:54:53;3.45;;;2.70;;
12925;SDS011;6529;50.566;9.774;2023-09-07T13:57:19;2.80;;;2.50;;
12925;SDS011;6529;50.566;9.774;2023-09-07T13:59:44;4.07;;;2.70;;
12925;SDS011;6529;50.566;9.774;2023-09-07T14:02:10;2.83;;;2.63;;
12925;SDS011;6529;50.566;9.774;2023-09-07T14:04:35;3.03;;;2.45;;
12925;SDS011;6529;50.566;9.774;2023-09-07T14:07:01;2.83;;;2.63;;
12925;SDS011;6529;50.566;9.774;2023-09-07T14:09:27;3.15;;;2.60;;
12925;SDS011;6529;50.566;9.774;2023-09-07T14:11:52;3.72;;;2.53;;
12925;SDS011;6529;50.566;9.774;2023-09-07T14:14:18;3.10;;;2.47;;
12925;SDS011;6529;50.566;9.774;2023-09-07T14:16:43;2.70;;;2.50;;
12925;SDS011;6529;50.566;9.774;2023-09-07T14:19:10;3.15;;;2.53;;
12925;SDS011;6529;50.566;9.774;2023-09-07T14:21:35;3.72;;;2.85;;
12925;SDS011;6529;50.566;9.774;2023-09-07T14:24:01;3.55;;;2.67;;
12925;SDS011;6529;50.566;9.774;2023-09-07T14:26:28;4.00;;;2.80;;
12925;SDS011;6529;50.566;9.774;2023-09-07T14:28:54;3.05;;;2.20;;
12925;SDS011;6529;50.566;9.774;2023-09-07T14:31:20;2.90;;;2.58;;
12925;SDS011;6529;50.566;9.774;2023-09-07T14:33:45;2.58;;;2.38;;
12925;SDS011;6529;50.566;9.774;2023-09-07T14:36:11;3.20;;;2.72;;
12925;SDS011;6529;50.566;9.774;2023-09-07T14:38:37;3.40;;;2.63;;
12925;SDS011;6529;50.566;9.774;2023-09-07T14:41:06;2.75;;;2.40;;
12925;SDS011;6529;50.566;9.774;2023-09-07T14:43:33;2.83;;;2.53;;
12925;SDS011;6529;50.566;9.774;2023-09-07T14:45:58;3.00;;;2.50;;
12925;SDS011;6529;50.566;9.774;2023-09-07T14:48:24;2.83;;;2.50;;
12925;SDS011;6529;50.566;9.774;2023-09-07T14:50:50;3.38;;;2.55;;
12925;SDS011;6529;50.566;9.774;2023-09-07T14:53:15;2.83;;;2.47;;
12925;SDS011;6529;50.566;9.774;2023-09-07T14:55:42;2.60;;;2.40;;
12925;SDS011;6529;50.566;9.774;2023-09-07T14:58:08;4.90;;;2.47;;
12925;SDS011;6529;50.566;9.774;2023-09-07T15:00:34;3.15;;;2.50;;